createdAt,value
2022-08-01T00:00:56.402Z,43.20
2022-08-01T00:03:24.516Z,44.10
2022-08-01T00:05:53.947Z,44.40
2022-08-01T00:08:22.022Z,44.40
2022-08-01T00:10:50.080Z,43.90
2022-08-01T00:13:18.140Z,44.90
2022-08-01T00:15:53.970Z,44.10
2022-08-01T00:18:22.844Z,44.80
2022-08-01T00:20:50.914Z,45.20
2022-08-01T00:23:20.436Z,45.10
2022-08-01T00:25:48.470Z,45.90
2022-08-01T00:28:17.323Z,45.00
2022-08-01T00:30:45.396Z,45.20
2022-08-01T00:33:13.500Z,45.80
2022-08-01T00:35:41.558Z,45.80
2022-08-01T00:38:09.640Z,45.80
2022-08-01T00:40:39.113Z,46.10
2022-08-01T00:43:07.207Z,46.70
2022-08-01T00:45:35.256Z,46.60
2022-08-01T00:48:03.361Z,47.60
2022-08-01T00:50:31.393Z,47.10
2022-08-01T00:52:59.707Z,47.20
2022-08-01T00:55:28.388Z,47.10
2022-08-01T00:58:03.522Z,47.00
2022-08-01T01:00:53.303Z,47.10
2022-08-01T01:03:43.576Z,46.40
2022-08-01T01:06:21.811Z,46.80
2022-08-01T01:08:55.476Z,47.30
2022-08-01T01:11:28.560Z,46.30
2022-08-01T01:14:00.360Z,46.20
2022-08-01T01:16:28.472Z,47.00
2022-08-01T01:18:57.747Z,47.70
2022-08-01T01:21:46.728Z,47.30
2022-08-01T01:24:21.827Z,47.50
2022-08-01T01:26:54.461Z,47.00
2022-08-01T01:29:27.855Z,46.40
2022-08-01T01:31:58.135Z,46.40
2022-08-01T01:34:26.229Z,45.80
2022-08-01T01:36:54.862Z,44.90
2022-08-01T01:39:22.929Z,44.30
2022-08-01T01:41:50.967Z,44.40
2022-08-01T01:44:19.115Z,44.70
2022-08-01T01:46:48.613Z,45.30
2022-08-01T01:49:16.724Z,45.00
2022-08-01T01:51:54.176Z,46.10
2022-08-01T01:54:33.657Z,46.00
2022-08-01T01:57:02.856Z,44.70
2022-08-01T01:59:32.183Z,44.10
2022-08-01T02:02:05.802Z,43.90
2022-08-01T02:04:34.729Z,43.60
2022-08-01T02:07:03.186Z,43.60
2022-08-01T02:09:31.298Z,44.10
2022-08-01T02:12:07.921Z,44.10
2022-08-01T02:14:37.758Z,44.60
2022-08-01T02:17:07.199Z,46.70
2022-08-01T02:19:38.005Z,48.60
2022-08-01T02:22:08.354Z,49.20
2022-08-01T02:24:44.548Z,49.70
2022-08-01T02:27:14.406Z,50.30
2022-08-01T02:29:44.041Z,50.70
2022-08-01T02:32:17.897Z,51.60
2022-08-01T02:34:45.963Z,52.80
2022-08-01T02:37:14.028Z,51.20
2022-08-01T02:39:42.496Z,50.70
2022-08-01T02:42:10.892Z,49.30
2022-08-01T02:44:40.728Z,51.40
2022-08-01T02:47:11.221Z,52.40
2022-08-01T02:49:44.130Z,50.90
2022-08-01T02:52:16.549Z,52.80
2022-08-01T02:54:44.736Z,52.70
2022-08-01T02:57:13.827Z,51.60
2022-08-01T02:59:42.190Z,50.50
2022-08-01T03:02:10.489Z,51.50
2022-08-01T03:04:41.061Z,51.10
2022-08-01T03:07:10.104Z,51.10
2022-08-01T03:09:39.708Z,52.00
2022-08-01T03:12:10.433Z,52.50
2022-08-01T03:14:39.647Z,53.00
2022-08-01T03:17:07.802Z,53.50
2022-08-01T03:19:35.870Z,53.40
2022-08-01T03:22:07.589Z,52.60
2022-08-01T03:24:36.052Z,53.20
2022-08-01T03:27:04.746Z,53.60
2022-08-01T03:29:32.854Z,54.20
2022-08-01T03:32:01.056Z,54.10
2022-08-01T03:34:29.545Z,54.10
2022-08-01T03:37:00.610Z,53.50
2022-08-01T03:39:32.242Z,53.20
2022-08-01T03:42:01.567Z,54.20
2022-08-01T03:44:31.191Z,53.20
2022-08-01T03:47:00.591Z,51.70
2022-08-01T03:49:35.137Z,52.40
2022-08-01T03:52:04.680Z,52.40
2022-08-01T03:54:35.777Z,51.90
2022-08-01T03:57:03.874Z,53.10
2022-08-01T03:59:31.993Z,52.40
2022-08-01T04:02:00.113Z,54.00
2022-08-01T04:04:28.168Z,54.40
2022-08-01T04:06:56.239Z,54.80
2022-08-01T04:09:24.349Z,54.70
2022-08-01T04:11:53.886Z,53.60
2022-08-01T04:14:21.953Z,54.90
2022-08-01T04:16:50.149Z,54.80
2022-08-01T04:19:18.237Z,54.70
2022-08-01T04:21:46.284Z,53.80
2022-08-01T04:24:15.225Z,55.40
2022-08-01T04:26:43.899Z,55.60
2022-08-01T04:29:13.430Z,55.60
2022-08-01T04:31:41.649Z,56.80
2022-08-01T04:34:09.795Z,56.00
2022-08-01T04:36:38.291Z,55.30
2022-08-01T04:39:06.826Z,56.80
2022-08-01T04:41:34.865Z,57.00
2022-08-01T04:44:03.742Z,57.20
2022-08-01T04:46:33.322Z,56.50
2022-08-01T04:49:01.584Z,56.00
2022-08-01T04:51:29.858Z,55.80
2022-08-01T04:53:58.851Z,54.80
2022-08-01T04:56:26.917Z,54.80
2022-08-01T04:59:08.856Z,54.00
2022-08-01T05:01:38.485Z,54.50
2022-08-01T05:04:06.795Z,53.90
2022-08-01T05:06:34.863Z,55.70
2022-08-01T05:09:02.967Z,54.80
2022-08-01T05:11:31.760Z,55.60
2022-08-01T05:13:59.844Z,55.40
2022-08-01T05:16:27.927Z,55.60
2022-08-01T05:18:57.991Z,55.80
2022-08-01T05:21:26.076Z,54.60
2022-08-01T05:23:54.185Z,55.40
2022-08-01T05:26:22.392Z,56.10
2022-08-01T05:28:50.478Z,54.60
2022-08-01T05:31:18.551Z,53.60
2022-08-01T05:33:46.663Z,53.10
2022-08-01T05:36:16.140Z,52.50
2022-08-01T05:38:44.248Z,52.20
2022-08-01T05:41:12.656Z,52.20
2022-08-01T05:43:40.701Z,52.10
2022-08-01T05:46:08.764Z,52.10
2022-08-01T05:48:36.883Z,51.10
2022-08-01T05:51:05.099Z,51.20
2022-08-01T05:53:35.649Z,50.70
2022-08-01T05:56:03.763Z,50.60
2022-08-01T05:58:32.889Z,50.30
2022-08-01T06:01:01.085Z,50.40
2022-08-01T06:03:32.188Z,50.40
2022-08-01T06:06:00.411Z,50.50
2022-08-01T06:08:28.539Z,49.70
2022-08-01T06:10:58.261Z,50.10
2022-08-01T06:13:26.399Z,49.90
2022-08-01T06:15:54.447Z,50.40
2022-08-01T06:18:22.556Z,49.40
2022-08-01T06:20:50.613Z,49.20
2022-08-01T06:23:31.910Z,49.10
2022-08-01T06:26:02.425Z,48.80
2022-08-01T06:28:30.569Z,48.40
2022-08-01T06:30:59.645Z,47.50
2022-08-01T06:33:27.784Z,47.50
2022-08-01T06:35:55.853Z,47.60
2022-08-01T06:38:23.970Z,47.50
2022-08-01T06:40:52.315Z,47.30
2022-08-01T06:43:22.375Z,46.70
2022-08-01T06:45:50.777Z,46.30
2022-08-01T06:48:18.940Z,46.10
2022-08-01T06:50:47.029Z,46.40
2022-08-01T06:53:15.157Z,46.10
2022-08-01T06:55:44.004Z,45.60
2022-08-01T06:58:12.109Z,45.40
2022-08-01T07:00:43.385Z,44.50
2022-08-01T07:03:11.806Z,44.10
2022-08-01T07:05:39.886Z,44.30
2022-08-01T07:08:08.053Z,43.60
2022-08-01T07:10:36.101Z,43.50
2022-08-01T07:13:04.223Z,43.20
2022-08-01T07:15:32.301Z,43.80
2022-08-01T07:18:04.735Z,44.00
2022-08-01T07:20:37.971Z,44.30
2022-08-01T07:23:18.598Z,43.50
2022-08-01T07:25:52.628Z,43.60
2022-08-01T07:28:21.149Z,42.80
2022-08-01T07:30:49.201Z,43.90
2022-08-01T07:33:18.653Z,46.20
2022-08-01T07:35:46.954Z,47.80
2022-08-01T07:38:16.217Z,47.30
2022-08-01T07:40:44.304Z,44.70
2022-08-01T07:43:12.382Z,43.80
2022-08-01T07:45:45.419Z,44.20
2022-08-01T07:48:14.731Z,42.60
2022-08-01T07:50:44.177Z,43.80
2022-08-01T07:53:12.319Z,44.00
2022-08-01T07:55:40.381Z,44.70
2022-08-01T07:58:08.449Z,45.80
2022-08-01T08:00:36.507Z,45.80
2022-08-01T08:03:04.587Z,42.50
2022-08-01T08:05:58.507Z,42.80
2022-08-01T08:08:23.441Z,44.50
2022-08-01T08:10:51.529Z,43.90
2022-08-01T08:13:20.967Z,43.90
2022-08-01T08:15:49.152Z,42.60
2022-08-01T08:18:18.740Z,42.50
2022-08-01T08:20:46.810Z,41.90
2022-08-01T08:23:42.954Z,42.00
2022-08-01T08:26:13.355Z,41.90
2022-08-01T08:28:41.446Z,41.90
2022-08-01T08:31:25.541Z,40.50
2022-08-01T08:33:57.662Z,39.20
2022-08-01T08:36:30.829Z,38.70
2022-08-01T08:39:01.543Z,38.70
2022-08-01T08:41:37.735Z,38.60
2022-08-01T08:44:06.883Z,39.00
2022-08-01T08:46:42.444Z,39.40
2022-08-01T08:49:10.993Z,39.00
2022-08-01T08:51:41.116Z,38.60
2022-08-01T08:54:09.250Z,38.30
2022-08-01T08:56:39.589Z,39.70
2022-08-01T08:59:07.656Z,41.60
2022-08-01T09:01:36.310Z,38.60
2022-08-01T09:04:04.627Z,41.30
2022-08-01T09:06:32.837Z,42.00
2022-08-01T09:09:01.079Z,40.90
2022-08-01T09:11:29.265Z,40.00
2022-08-01T09:14:09.585Z,39.90
2022-08-01T09:16:38.794Z,39.90
2022-08-01T09:19:16.120Z,41.70
2022-08-01T09:22:00.373Z,42.70
2022-08-01T09:24:30.539Z,41.40
2022-08-01T09:26:59.220Z,42.70
2022-08-01T09:29:37.599Z,40.40
2022-08-01T09:32:08.249Z,41.70
2022-08-01T09:34:41.796Z,41.40
2022-08-01T09:37:11.070Z,41.80
2022-08-01T09:39:43.671Z,38.30
2022-08-01T09:42:28.527Z,40.20
2022-08-01T09:44:58.921Z,40.40
2022-08-01T09:47:38.789Z,40.00
2022-08-01T09:50:11.041Z,37.30
2022-08-01T09:52:41.099Z,36.20
2022-08-01T09:55:09.956Z,36.90
2022-08-01T09:57:38.136Z,36.70
2022-08-01T10:00:09.963Z,36.70
2022-08-01T10:02:40.172Z,39.30
2022-08-01T10:05:09.885Z,39.80
2022-08-01T10:07:43.415Z,38.30
2022-08-01T10:10:13.038Z,38.90
2022-08-01T10:12:45.292Z,38.90
2022-08-01T10:15:15.429Z,42.60
2022-08-01T10:17:50.287Z,40.90
2022-08-01T10:20:29.860Z,40.70
2022-08-01T10:23:02.263Z,41.10
2022-08-01T10:25:42.904Z,39.50
2022-08-01T10:28:18.194Z,39.50
2022-08-01T10:30:50.990Z,41.30
2022-08-01T10:33:51.115Z,38.40
2022-08-01T10:36:08.835Z,38.30
2022-08-01T10:38:37.942Z,38.40
2022-08-01T10:41:08.870Z,37.90
2022-08-01T10:43:37.420Z,37.70
2022-08-01T10:46:07.144Z,37.20
2022-08-01T10:48:40.733Z,38.30
2022-08-01T10:51:18.969Z,38.10
2022-08-01T10:53:50.560Z,39.80
2022-08-01T10:56:27.071Z,38.20
2022-08-01T10:59:06.088Z,38.60
2022-08-01T11:01:38.401Z,40.20
2022-08-01T11:04:17.708Z,40.10
2022-08-01T11:06:52.338Z,42.40
2022-08-01T11:09:36.395Z,42.30
2022-08-01T11:12:13.215Z,42.50
2022-08-01T11:15:30.152Z,39.60
2022-08-01T11:18:01.805Z,38.30
2022-08-01T11:20:32.500Z,37.60
2022-08-01T11:23:17.896Z,38.10
2022-08-01T11:26:10.496Z,40.40
2022-08-01T11:28:41.242Z,39.70
2022-08-01T11:31:31.177Z,38.80
2022-08-01T11:34:07.734Z,38.50
2022-08-01T11:36:58.601Z,39.70
2022-08-01T11:39:23.912Z,38.10
2022-08-01T11:41:53.747Z,37.60
2022-08-01T11:44:30.314Z,35.80
2022-08-01T11:47:09.482Z,35.10
2022-08-01T11:50:02.430Z,36.50
2022-08-01T11:52:31.639Z,35.40
2022-08-01T11:55:00.565Z,35.60
2022-08-01T11:57:32.523Z,38.90
2022-08-01T12:00:08.295Z,36.30
2022-08-01T12:02:37.023Z,36.00
2022-08-01T12:05:08.469Z,37.10
2022-08-01T12:07:40.626Z,34.80
2022-08-01T12:10:10.198Z,35.10
2022-08-01T12:12:39.072Z,35.20
2022-08-01T12:15:09.881Z,37.60
2022-08-01T12:17:39.327Z,37.80
2022-08-01T12:20:10.405Z,37.60
2022-08-01T12:22:38.695Z,35.70
2022-08-01T12:25:10.711Z,35.30
2022-08-01T12:27:39.020Z,36.90
2022-08-01T12:30:09.503Z,37.60
2022-08-01T12:32:38.323Z,36.20
2022-08-01T12:35:09.654Z,37.70
2022-08-01T12:37:38.449Z,36.50
2022-08-01T12:40:14.992Z,36.40
2022-08-01T12:42:43.606Z,35.00
2022-08-01T12:45:12.962Z,35.50
2022-08-01T12:47:41.104Z,34.40
2022-08-01T12:50:13.137Z,35.00
2022-08-01T12:52:41.208Z,34.80
2022-08-01T12:55:14.455Z,35.50
2022-08-01T12:57:43.350Z,35.50
2022-08-01T13:00:13.748Z,35.00
2022-08-01T13:02:42.001Z,37.20
2022-08-01T13:05:12.010Z,35.70
2022-08-01T13:07:45.727Z,34.90
2022-08-01T13:10:14.498Z,33.90
2022-08-01T13:12:42.964Z,33.70
2022-08-01T13:15:22.237Z,33.20
2022-08-01T13:17:50.268Z,33.10
2022-08-01T13:20:30.790Z,34.50
2022-08-01T13:23:15.283Z,38.00
2022-08-01T13:25:53.651Z,34.40
2022-08-01T13:28:23.312Z,34.40
2022-08-01T13:31:00.519Z,34.00
2022-08-01T13:33:29.882Z,33.10
2022-08-01T13:35:59.659Z,33.10
2022-08-01T13:38:45.268Z,33.00
2022-08-01T13:41:13.725Z,33.40
2022-08-01T13:43:58.199Z,32.80
2022-08-01T13:46:27.156Z,33.40
2022-08-01T13:48:57.872Z,32.90
2022-08-01T13:51:34.857Z,32.40
2022-08-01T13:54:03.442Z,33.90
2022-08-01T13:56:31.519Z,34.00
2022-08-01T13:58:59.579Z,34.20
2022-08-01T14:01:31.093Z,32.40
2022-08-01T14:04:02.367Z,33.90
2022-08-01T14:06:30.660Z,36.10
2022-08-01T14:09:00.125Z,34.90
2022-08-01T14:11:30.550Z,34.40
2022-08-01T14:14:08.413Z,34.00
2022-08-01T14:16:38.539Z,33.30
2022-08-01T14:19:06.630Z,33.90
2022-08-01T14:21:34.733Z,36.20
2022-08-01T14:24:04.238Z,34.90
2022-08-01T14:26:32.380Z,34.10
2022-08-01T14:29:00.489Z,34.80
2022-08-01T14:31:34.042Z,35.80
2022-08-01T14:34:02.767Z,36.20
2022-08-01T14:36:31.917Z,35.90
2022-08-01T14:39:07.929Z,35.10
2022-08-01T14:41:43.022Z,36.50
2022-08-01T14:44:13.620Z,37.10
2022-08-01T14:46:57.696Z,34.70
2022-08-01T14:49:26.866Z,34.00
2022-08-01T14:51:54.965Z,34.50
2022-08-01T14:54:29.136Z,36.40
2022-08-01T14:56:57.707Z,36.40
2022-08-01T14:59:25.807Z,34.60
2022-08-01T15:01:53.877Z,36.30
2022-08-01T15:04:21.952Z,34.60
2022-08-01T15:06:50.030Z,35.20
2022-08-01T15:09:18.119Z,35.70
2022-08-01T15:11:48.210Z,34.70
2022-08-01T15:14:33.713Z,36.00
2022-08-01T15:17:01.813Z,36.40
2022-08-01T15:19:29.886Z,35.80
2022-08-01T15:21:57.927Z,35.40
2022-08-01T15:24:27.494Z,33.40
2022-08-01T15:26:57.032Z,36.60
2022-08-01T15:29:25.221Z,35.40
2022-08-01T15:31:53.272Z,34.20
2022-08-01T15:34:21.558Z,33.10
2022-08-01T15:36:49.661Z,34.20
2022-08-01T15:39:18.731Z,35.30
2022-08-01T15:41:46.782Z,35.50
2022-08-01T15:44:16.253Z,34.90
2022-08-01T15:46:44.329Z,33.70
2022-08-01T15:49:12.540Z,34.10
2022-08-01T15:51:40.658Z,34.70
2022-08-01T15:54:12.872Z,34.70
2022-08-01T15:56:42.735Z,35.10
2022-08-01T15:59:10.896Z,35.20
2022-08-01T16:01:40.538Z,36.80
2022-08-01T16:04:08.852Z,35.20
2022-08-01T16:06:37.750Z,38.30
2022-08-01T16:09:05.986Z,36.60
2022-08-01T16:11:34.049Z,36.20
2022-08-01T16:14:02.150Z,34.70
2022-08-01T16:16:30.247Z,34.80
2022-08-01T16:18:59.730Z,37.10
2022-08-01T16:21:27.877Z,36.30
2022-08-01T16:23:55.970Z,36.70
2022-08-01T16:26:27.761Z,35.80
2022-08-01T16:28:58.013Z,35.70
2022-08-01T16:31:43.783Z,36.00
2022-08-01T16:34:16.387Z,34.70
2022-08-01T16:36:44.535Z,35.50
2022-08-01T16:39:12.648Z,35.70
2022-08-01T16:41:40.799Z,36.10
2022-08-01T16:44:08.919Z,36.50
2022-08-01T16:46:37.002Z,35.10
2022-08-01T16:49:06.710Z,34.80
2022-08-01T16:51:40.734Z,35.00
2022-08-01T16:54:25.120Z,34.90
2022-08-01T16:56:54.329Z,35.80
2022-08-01T16:59:24.218Z,35.50
2022-08-01T17:01:58.757Z,36.60
2022-08-01T17:04:30.202Z,35.40
2022-08-01T17:06:59.706Z,35.70
2022-08-01T17:09:27.824Z,37.10
2022-08-01T17:11:55.863Z,35.70
2022-08-01T17:14:23.934Z,35.70
2022-08-01T17:16:52.014Z,36.20
2022-08-01T17:19:20.120Z,37.10
2022-08-01T17:21:54.934Z,36.30
2022-08-01T17:24:24.381Z,36.00
2022-08-01T17:26:52.452Z,36.20
2022-08-01T17:29:20.535Z,36.50
2022-08-01T17:31:48.835Z,36.10
2022-08-01T17:34:16.910Z,35.70
2022-08-01T17:36:44.956Z,35.60
2022-08-01T17:39:13.649Z,36.30
2022-08-01T17:41:43.144Z,35.60
2022-08-01T17:44:11.692Z,35.40
2022-08-01T17:46:39.790Z,36.90
2022-08-01T17:49:08.141Z,36.50
2022-08-01T17:51:38.173Z,36.40
2022-08-01T17:54:06.620Z,36.50
2022-08-01T17:56:38.611Z,36.80
2022-08-01T17:59:09.520Z,37.00
2022-08-01T18:01:37.688Z,36.90
2022-08-01T18:04:13.498Z,37.10
2022-08-01T18:06:58.097Z,38.00
2022-08-01T18:09:27.042Z,36.80
2022-08-01T18:11:55.092Z,36.20
2022-08-01T18:14:39.741Z,36.60
2022-08-01T18:17:11.386Z,37.60
2022-08-01T18:19:40.079Z,37.20
2022-08-01T18:22:14.456Z,37.80
2022-08-01T18:24:54.391Z,37.30
2022-08-01T18:27:22.436Z,36.80
2022-08-01T18:29:53.373Z,37.00
2022-08-01T18:32:21.493Z,37.30
2022-08-01T18:34:49.602Z,37.10
2022-08-01T18:37:17.873Z,37.30
2022-08-01T18:39:48.286Z,37.40
2022-08-01T18:42:16.363Z,37.30
2022-08-01T18:44:44.449Z,37.50
2022-08-01T18:47:13.871Z,38.00
2022-08-01T18:49:42.102Z,38.30
2022-08-01T18:52:10.209Z,38.20
2022-08-01T18:54:38.310Z,38.40
2022-08-01T18:57:06.614Z,38.40
2022-08-01T18:59:34.952Z,38.20
2022-08-01T19:02:06.798Z,38.30
2022-08-01T19:04:36.597Z,38.00
2022-08-01T19:07:05.186Z,37.80
2022-08-01T19:09:33.512Z,37.90
2022-08-01T19:12:01.580Z,38.50
2022-08-01T19:14:29.705Z,39.20
2022-08-01T19:16:57.778Z,38.80
2022-08-01T19:19:28.127Z,38.70
2022-08-01T19:21:57.739Z,38.90
2022-08-01T19:24:25.900Z,39.10
2022-08-01T19:26:54.851Z,38.90
2022-08-01T19:29:23.941Z,38.70
2022-08-01T19:32:05.437Z,38.80
2022-08-01T19:34:34.875Z,38.50
2022-08-01T19:37:04.552Z,38.70
2022-08-01T19:39:32.926Z,38.70
2022-08-01T19:42:00.973Z,39.40
2022-08-01T19:44:29.827Z,39.50
2022-08-01T19:46:57.883Z,39.70
2022-08-01T19:49:26.085Z,39.60
2022-08-01T19:51:56.699Z,39.50
2022-08-01T19:54:29.469Z,39.30
2022-08-01T19:56:59.257Z,39.50
2022-08-01T19:59:27.963Z,39.20
2022-08-01T20:01:56.799Z,39.20
2022-08-01T20:04:24.887Z,39.60
2022-08-01T20:06:53.161Z,41.70
2022-08-01T20:09:21.595Z,44.00
2022-08-01T20:11:52.017Z,44.60
2022-08-01T20:14:21.495Z,44.40
2022-08-01T20:16:49.987Z,45.00
2022-08-01T20:19:18.311Z,46.00
2022-08-01T20:22:03.625Z,45.40
2022-08-01T20:24:38.103Z,44.20
2022-08-01T20:27:11.221Z,44.40
2022-08-01T20:29:39.679Z,45.30
2022-08-01T20:32:08.120Z,45.30
2022-08-01T20:34:38.366Z,45.90
2022-08-01T20:37:09.256Z,45.20
2022-08-01T20:39:43.995Z,46.20
2022-08-01T20:42:14.328Z,46.90
2022-08-01T20:44:42.864Z,46.80
2022-08-01T20:47:11.281Z,46.10
2022-08-01T20:49:39.705Z,45.10
2022-08-01T20:52:11.097Z,46.30
2022-08-01T20:54:41.011Z,46.80
2022-08-01T20:57:13.754Z,47.20
2022-08-01T20:59:56.830Z,48.20
2022-08-01T21:02:32.325Z,48.20
2022-08-01T21:05:03.517Z,47.50
2022-08-01T21:07:34.344Z,47.60
2022-08-01T21:10:05.972Z,48.00
2022-08-01T21:12:49.513Z,47.50
2022-08-01T21:15:23.000Z,48.10
2022-08-01T21:17:57.256Z,47.40
2022-08-01T21:20:28.069Z,48.00
2022-08-01T21:23:01.430Z,48.80
2022-08-01T21:25:32.304Z,50.60
2022-08-01T21:28:01.871Z,49.80
2022-08-01T21:30:31.156Z,49.50
2022-08-01T21:32:59.217Z,49.20
2022-08-01T21:35:27.590Z,48.50
2022-08-01T21:37:55.995Z,48.50
2022-08-01T21:40:24.678Z,48.40
2022-08-01T21:42:53.209Z,48.50
2022-08-01T21:45:23.725Z,48.60
2022-08-01T21:47:51.880Z,47.70
2022-08-01T21:50:20.143Z,48.80
2022-08-01T21:52:50.665Z,48.00
2022-08-01T21:55:34.903Z,48.70
2022-08-01T21:58:14.948Z,48.40
2022-08-01T22:00:46.253Z,48.70
2022-08-01T22:03:21.297Z,47.60
2022-08-01T22:05:51.442Z,47.30
2022-08-01T22:08:26.455Z,46.70
2022-08-01T22:11:00.379Z,47.00
2022-08-01T22:13:28.492Z,48.60
2022-08-01T22:15:58.760Z,50.00
2022-08-01T22:18:27.452Z,50.60
2022-08-01T22:20:55.800Z,49.30
2022-08-01T22:23:23.979Z,49.90
2022-08-01T22:25:53.109Z,50.00
2022-08-01T22:28:22.073Z,50.80
2022-08-01T22:30:50.732Z,48.90
2022-08-01T22:33:20.271Z,48.80
2022-08-01T22:35:49.493Z,50.30
2022-08-01T22:38:18.422Z,49.00
2022-08-01T22:40:49.145Z,48.40
2022-08-01T22:43:23.999Z,49.50
2022-08-01T22:45:55.905Z,51.10
2022-08-01T22:48:29.427Z,51.00
2022-08-01T22:51:04.250Z,49.50
2022-08-01T22:53:33.812Z,50.70
2022-08-01T22:56:03.066Z,50.30
2022-08-01T22:58:31.985Z,50.80
2022-08-01T23:01:02.300Z,50.20
2022-08-01T23:03:34.554Z,51.80
2022-08-01T23:06:04.090Z,53.00
2022-08-01T23:08:32.381Z,53.50
2022-08-01T23:11:01.438Z,53.70
2022-08-01T23:13:29.595Z,54.10
2022-08-01T23:15:58.104Z,52.60
2022-08-01T23:18:26.603Z,52.60
2022-08-01T23:20:57.246Z,52.90
2022-08-01T23:23:30.635Z,55.00
2022-08-01T23:25:59.920Z,53.20
2022-08-01T23:28:28.824Z,53.70
2022-08-01T23:30:56.897Z,52.90
2022-08-01T23:33:25.008Z,52.40
2022-08-01T23:35:53.053Z,53.50
2022-08-01T23:38:22.772Z,54.20
2022-08-01T23:40:51.285Z,52.70
2022-08-01T23:43:19.397Z,53.40
2022-08-01T23:46:04.191Z,54.60
2022-08-01T23:48:34.348Z,54.40
2022-08-01T23:51:02.471Z,54.70
2022-08-01T23:53:31.953Z,55.00
2022-08-01T23:56:01.019Z,55.00
2022-08-01T23:58:30.965Z,55.00
